Jewett City, Connecticut
Current Conditions -  °F | °C
As of 10:52 PM on Thursday 18 Dec 2014 (Local Time) from KIJD Reporting Station
Overcast Overcast  
Wind Chill: 32°   Ceiling: 3000
Heat Index: 36°   Visibility: 10mi
Dew Point: 25°   Wind: 5mph
Humidity: 64%   Direction: NA
Pressure: 29.91"   Gusts: NA
Location:  41.61°N, 71.98°W
Report Text: KIJD 190352Z AUTO VRB04KT 10SM OVC030 02/M04 A2991 RMK AO2 SLP130 T00221039
Loading
Personal Weather Stations






























Interactive Weather Map New forecast layout! Learn more

10-Day Weather Forecast

Advertisements
Track Severe Weather on mobile